sensor_id;sensor_type;location;lat;lon;timestamp;temperature;humidity
57552;DHT22;43379;48.160;14.036;2022-11-21T00:00:16;6.20;99.90
57552;DHT22;43379;48.160;14.036;2022-11-21T00:02:42;6.30;99.90
57552;DHT22;43379;48.160;14.036;2022-11-21T00:05:08;6.20;99.90
57552;DHT22;43379;48.160;14.036;2022-11-21T00:07:33;6.30;99.90
57552;DHT22;43379;48.160;14.036;2022-11-21T00:09:59;6.30;99.90
57552;DHT22;43379;48.160;14.036;2022-11-21T00:12:25;6.30;99.90
57552;DHT22;43379;48.160;14.036;2022-11-21T00:14:51;6.30;99.90
57552;DHT22;43379;48.160;14.036;2022-11-21T00:17:16;6.30;99.90
57552;DHT22;43379;48.160;14.036;2022-11-21T00:19:42;6.30;99.90
57552;DHT22;43379;48.160;14.036;2022-11-21T00:22:08;6.40;99.90
57552;DHT22;43379;48.160;14.036;2022-11-21T00:24:33;6.30;99.90
57552;DHT22;43379;48.160;14.036;2022-11-21T00:26:59;6.30;99.90
57552;DHT22;43379;48.160;14.036;2022-11-21T00:29:24;6.30;99.90
57552;DHT22;43379;48.160;14.036;2022-11-21T00:31:50;6.30;99.90
57552;DHT22;43379;48.160;14.036;2022-11-21T00:34:16;6.40;99.90
57552;DHT22;43379;48.160;14.036;2022-11-21T00:36:41;6.40;99.90
57552;DHT22;43379;48.160;14.036;2022-11-21T00:39:07;6.50;99.90
57552;DHT22;43379;48.160;14.036;2022-11-21T00:41:33;6.50;99.90
57552;DHT22;43379;48.160;14.036;2022-11-21T00:43:59;6.50;99.90
57552;DHT22;43379;48.160;14.036;2022-11-21T00:46:24;6.50;99.90
57552;DHT22;43379;48.160;14.036;2022-11-21T00:48:50;6.50;99.90
57552;DHT22;43379;48.160;14.036;2022-11-21T00:51:16;6.60;99.90
57552;DHT22;43379;48.160;14.036;2022-11-21T00:53:41;6.60;99.90
57552;DHT22;43379;48.160;14.036;2022-11-21T00:56:07;6.70;99.90
57552;DHT22;43379;48.160;14.036;2022-11-21T00:58:33;6.70;99.90
57552;DHT22;43379;48.160;14.036;2022-11-21T01:01:08;6.70;99.90
57552;DHT22;43379;48.160;14.036;2022-11-21T01:03:34;6.80;99.90
57552;DHT22;43379;48.160;14.036;2022-11-21T01:06:04;6.80;99.90
57552;DHT22;43379;48.160;14.036;2022-11-21T01:08:31;6.90;99.90
57552;DHT22;43379;48.160;14.036;2022-11-21T01:11:02;6.90;99.90
57552;DHT22;43379;48.160;14.036;2022-11-21T01:13:28;7.00;99.90
57552;DHT22;43379;48.160;14.036;2022-11-21T01:15:54;7.00;99.90
57552;DHT22;43379;48.160;14.036;2022-11-21T01:18:19;7.00;99.90
57552;DHT22;43379;48.160;14.036;2022-11-21T01:20:45;7.10;99.90
57552;DHT22;43379;48.160;14.036;2022-11-21T01:23:11;7.00;99.90
57552;DHT22;43379;48.160;14.036;2022-11-21T01:25:36;7.00;99.90
57552;DHT22;43379;48.160;14.036;2022-11-21T01:28:02;7.00;99.90
57552;DHT22;43379;48.160;14.036;2022-11-21T01:30:28;7.00;99.90
57552;DHT22;43379;48.160;14.036;2022-11-21T01:32:53;7.00;99.90
57552;DHT22;43379;48.160;14.036;2022-11-21T01:35:19;7.00;99.90
57552;DHT22;43379;48.160;14.036;2022-11-21T01:37:48;7.00;99.90
57552;DHT22;43379;48.160;14.036;2022-11-21T01:40:14;7.00;99.90
57552;DHT22;43379;48.160;14.036;2022-11-21T01:43:10;7.00;99.90
57552;DHT22;43379;48.160;14.036;2022-11-21T01:49:01;7.00;99.90
57552;DHT22;43379;48.160;14.036;2022-11-21T01:56:40;6.90;99.90
57552;DHT22;43379;48.160;14.036;2022-11-21T01:59:10;6.90;99.90
57552;DHT22;43379;48.160;14.036;2022-11-21T02:01:37;6.90;99.90
57552;DHT22;43379;48.160;14.036;2022-11-21T02:04:04;6.80;99.90
57552;DHT22;43379;48.160;14.036;2022-11-21T02:06:31;6.90;99.90
57552;DHT22;43379;48.160;14.036;2022-11-21T02:08:58;6.80;99.90
57552;DHT22;43379;48.160;14.036;2022-11-21T02:13:50;6.80;99.90
57552;DHT22;43379;48.160;14.036;2022-11-21T02:16:16;6.80;99.90
57552;DHT22;43379;48.160;14.036;2022-11-21T02:18:42;6.80;99.90
57552;DHT22;43379;48.160;14.036;2022-11-21T02:24:10;6.80;99.90
57552;DHT22;43379;48.160;14.036;2022-11-21T02:26:39;6.80;99.90
57552;DHT22;43379;48.160;14.036;2022-11-21T02:29:05;6.70;99.90
57552;DHT22;43379;48.160;14.036;2022-11-21T02:31:31;6.70;99.90
57552;DHT22;43379;48.160;14.036;2022-11-21T02:33:57;6.60;99.90
57552;DHT22;43379;48.160;14.036;2022-11-21T02:36:41;6.60;99.90
57552;DHT22;43379;48.160;14.036;2022-11-21T02:39:11;6.60;99.90
57552;DHT22;43379;48.160;14.036;2022-11-21T02:41:45;6.50;99.90
57552;DHT22;43379;48.160;14.036;2022-11-21T02:44:22;6.50;99.90
57552;DHT22;43379;48.160;14.036;2022-11-21T02:46:50;6.50;99.90
57552;DHT22;43379;48.160;14.036;2022-11-21T02:49:21;6.50;99.90
57552;DHT22;43379;48.160;14.036;2022-11-21T02:51:48;6.50;99.90
57552;DHT22;43379;48.160;14.036;2022-11-21T02:54:14;6.50;99.90
57552;DHT22;43379;48.160;14.036;2022-11-21T02:56:40;6.50;99.90
57552;DHT22;43379;48.160;14.036;2022-11-21T02:59:05;6.50;99.90
57552;DHT22;43379;48.160;14.036;2022-11-21T03:01:31;6.50;99.90
57552;DHT22;43379;48.160;14.036;2022-11-21T03:03:56;6.50;99.90
57552;DHT22;43379;48.160;14.036;2022-11-21T03:06:22;6.40;99.90
57552;DHT22;43379;48.160;14.036;2022-11-21T03:08:48;6.40;99.90
57552;DHT22;43379;48.160;14.036;2022-11-21T03:11:13;6.40;99.90
57552;DHT22;43379;48.160;14.036;2022-11-21T03:13:39;6.40;99.90
57552;DHT22;43379;48.160;14.036;2022-11-21T03:16:04;6.40;99.90
57552;DHT22;43379;48.160;14.036;2022-11-21T03:18:30;6.40;99.90
57552;DHT22;43379;48.160;14.036;2022-11-21T03:20:56;6.30;99.90
57552;DHT22;43379;48.160;14.036;2022-11-21T03:23:22;6.40;99.90
57552;DHT22;43379;48.160;14.036;2022-11-21T03:25:48;6.40;99.90
57552;DHT22;43379;48.160;14.036;2022-11-21T03:28:13;6.30;99.90
57552;DHT22;43379;48.160;14.036;2022-11-21T03:30:39;6.40;99.90
57552;DHT22;43379;48.160;14.036;2022-11-21T03:33:05;6.40;99.90
57552;DHT22;43379;48.160;14.036;2022-11-21T03:35:30;6.50;99.90
57552;DHT22;43379;48.160;14.036;2022-11-21T03:37:56;6.50;99.90
57552;DHT22;43379;48.160;14.036;2022-11-21T03:40:22;6.50;99.90
57552;DHT22;43379;48.160;14.036;2022-11-21T03:42:47;6.50;99.90
57552;DHT22;43379;48.160;14.036;2022-11-21T03:45:13;6.50;99.90
57552;DHT22;43379;48.160;14.036;2022-11-21T03:47:38;6.50;99.90
57552;DHT22;43379;48.160;14.036;2022-11-21T03:50:05;6.50;99.90
57552;DHT22;43379;48.160;14.036;2022-11-21T03:52:30;6.60;99.90
57552;DHT22;43379;48.160;14.036;2022-11-21T03:54:56;6.50;99.90
57552;DHT22;43379;48.160;14.036;2022-11-21T03:57:22;6.50;99.90
57552;DHT22;43379;48.160;14.036;2022-11-21T03:59:47;6.50;99.90
57552;DHT22;43379;48.160;14.036;2022-11-21T04:02:13;6.50;99.90
57552;DHT22;43379;48.160;14.036;2022-11-21T04:04:39;6.50;99.90
57552;DHT22;43379;48.160;14.036;2022-11-21T04:07:04;6.50;99.90
57552;DHT22;43379;48.160;14.036;2022-11-21T04:09:30;6.50;99.90
57552;DHT22;43379;48.160;14.036;2022-11-21T04:11:56;6.60;99.90
57552;DHT22;43379;48.160;14.036;2022-11-21T04:14:21;6.60;99.90
57552;DHT22;43379;48.160;14.036;2022-11-21T04:16:47;6.60;99.90
57552;DHT22;43379;48.160;14.036;2022-11-21T04:19:13;6.60;99.90
57552;DHT22;43379;48.160;14.036;2022-11-21T04:21:38;6.60;99.90
57552;DHT22;43379;48.160;14.036;2022-11-21T04:24:04;6.50;99.90
57552;DHT22;43379;48.160;14.036;2022-11-21T04:26:30;6.60;99.90
57552;DHT22;43379;48.160;14.036;2022-11-21T04:28:56;6.60;99.90
57552;DHT22;43379;48.160;14.036;2022-11-21T04:31:22;6.50;99.90
57552;DHT22;43379;48.160;14.036;2022-11-21T04:33:47;6.50;99.90
57552;DHT22;43379;48.160;14.036;2022-11-21T04:36:13;6.60;99.90
57552;DHT22;43379;48.160;14.036;2022-11-21T04:38:39;6.60;99.90
57552;DHT22;43379;48.160;14.036;2022-11-21T04:41:04;6.60;99.90
57552;DHT22;43379;48.160;14.036;2022-11-21T04:43:30;6.60;99.90
57552;DHT22;43379;48.160;14.036;2022-11-21T04:45:56;6.60;99.90
57552;DHT22;43379;48.160;14.036;2022-11-21T04:48:21;6.50;99.90
57552;DHT22;43379;48.160;14.036;2022-11-21T04:50:47;6.50;99.90
57552;DHT22;43379;48.160;14.036;2022-11-21T04:53:13;6.60;99.90
57552;DHT22;43379;48.160;14.036;2022-11-21T04:55:38;6.50;99.90
57552;DHT22;43379;48.160;14.036;2022-11-21T04:58:04;6.50;99.90
57552;DHT22;43379;48.160;14.036;2022-11-21T05:00:30;6.60;99.90
57552;DHT22;43379;48.160;14.036;2022-11-21T05:03:01;6.60;99.90
57552;DHT22;43379;48.160;14.036;2022-11-21T05:05:27;6.60;99.90
57552;DHT22;43379;48.160;14.036;2022-11-21T05:07:52;6.60;99.90
57552;DHT22;43379;48.160;14.036;2022-11-21T05:10:18;6.60;99.90
57552;DHT22;43379;48.160;14.036;2022-11-21T05:12:44;6.60;99.90
57552;DHT22;43379;48.160;14.036;2022-11-21T05:15:28;6.70;99.90
57552;DHT22;43379;48.160;14.036;2022-11-21T05:17:53;6.70;99.90
57552;DHT22;43379;48.160;14.036;2022-11-21T05:20:19;6.70;99.90
57552;DHT22;43379;48.160;14.036;2022-11-21T05:22:46;6.70;99.90
57552;DHT22;43379;48.160;14.036;2022-11-21T05:25:15;6.70;99.90
57552;DHT22;43379;48.160;14.036;2022-11-21T05:27:40;6.70;99.90
57552;DHT22;43379;48.160;14.036;2022-11-21T05:30:07;6.70;99.90
57552;DHT22;43379;48.160;14.036;2022-11-21T05:32:32;6.80;99.90
57552;DHT22;43379;48.160;14.036;2022-11-21T05:34:58;6.70;99.90
57552;DHT22;43379;48.160;14.036;2022-11-21T05:37:23;6.80;99.90
57552;DHT22;43379;48.160;14.036;2022-11-21T05:39:49;6.80;99.90
57552;DHT22;43379;48.160;14.036;2022-11-21T05:42:15;6.80;99.90
57552;DHT22;43379;48.160;14.036;2022-11-21T05:44:40;6.80;99.90
57552;DHT22;43379;48.160;14.036;2022-11-21T05:47:06;6.80;99.90
57552;DHT22;43379;48.160;14.036;2022-11-21T05:49:32;6.80;99.90
57552;DHT22;43379;48.160;14.036;2022-11-21T05:51:57;6.90;99.90
57552;DHT22;43379;48.160;14.036;2022-11-21T05:54:23;6.80;99.90
57552;DHT22;43379;48.160;14.036;2022-11-21T05:56:48;6.90;99.90
57552;DHT22;43379;48.160;14.036;2022-11-21T05:59:14;6.80;99.90
57552;DHT22;43379;48.160;14.036;2022-11-21T06:01:40;6.80;99.90
57552;DHT22;43379;48.160;14.036;2022-11-21T06:04:24;6.80;99.90
57552;DHT22;43379;48.160;14.036;2022-11-21T06:06:49;6.80;99.90
57552;DHT22;43379;48.160;14.036;2022-11-21T06:09:15;6.80;99.90
57552;DHT22;43379;48.160;14.036;2022-11-21T06:11:40;6.70;99.90
57552;DHT22;43379;48.160;14.036;2022-11-21T06:14:06;6.70;99.90
57552;DHT22;43379;48.160;14.036;2022-11-21T06:16:32;6.80;99.90
57552;DHT22;43379;48.160;14.036;2022-11-21T06:18:57;6.80;99.90
57552;DHT22;43379;48.160;14.036;2022-11-21T06:21:25;6.90;99.90
57552;DHT22;43379;48.160;14.036;2022-11-21T06:23:52;6.90;99.90
57552;DHT22;43379;48.160;14.036;2022-11-21T06:26:20;6.90;99.90
57552;DHT22;43379;48.160;14.036;2022-11-21T06:28:46;6.80;99.90
57552;DHT22;43379;48.160;14.036;2022-11-21T06:31:17;6.90;99.90
57552;DHT22;43379;48.160;14.036;2022-11-21T06:33:43;6.90;99.90
57552;DHT22;43379;48.160;14.036;2022-11-21T06:36:11;6.90;99.90
57552;DHT22;43379;48.160;14.036;2022-11-21T06:38:37;6.90;99.90
57552;DHT22;43379;48.160;14.036;2022-11-21T06:41:13;6.80;99.90
57552;DHT22;43379;48.160;14.036;2022-11-21T06:43:40;6.80;99.90
57552;DHT22;43379;48.160;14.036;2022-11-21T06:46:06;6.90;99.90
57552;DHT22;43379;48.160;14.036;2022-11-21T06:48:33;6.90;99.90
57552;DHT22;43379;48.160;14.036;2022-11-21T06:51:03;6.90;99.90
57552;DHT22;43379;48.160;14.036;2022-11-21T06:53:29;6.90;99.90
57552;DHT22;43379;48.160;14.036;2022-11-21T06:55:58;6.90;99.90
57552;DHT22;43379;48.160;14.036;2022-11-21T06:58:24;7.00;99.90
57552;DHT22;43379;48.160;14.036;2022-11-21T07:00:50;7.00;99.90
57552;DHT22;43379;48.160;14.036;2022-11-21T07:03:15;7.10;99.90
57552;DHT22;43379;48.160;14.036;2022-11-21T07:05:41;7.10;99.90
57552;DHT22;43379;48.160;14.036;2022-11-21T07:08:07;7.10;99.90
57552;DHT22;43379;48.160;14.036;2022-11-21T07:10:32;7.20;99.90
57552;DHT22;43379;48.160;14.036;2022-11-21T07:12:59;7.20;99.90
57552;DHT22;43379;48.160;14.036;2022-11-21T07:15:45;7.20;99.90
57552;DHT22;43379;48.160;14.036;2022-11-21T07:18:11;7.20;99.90
57552;DHT22;43379;48.160;14.036;2022-11-21T07:20:37;7.30;99.90
57552;DHT22;43379;48.160;14.036;2022-11-21T07:23:04;7.40;99.90
57552;DHT22;43379;48.160;14.036;2022-11-21T07:25:30;7.40;99.90
57552;DHT22;43379;48.160;14.036;2022-11-21T07:27:59;7.50;99.90
57552;DHT22;43379;48.160;14.036;2022-11-21T07:30:26;7.60;99.90
57552;DHT22;43379;48.160;14.036;2022-11-21T07:32:58;7.60;99.90
57552;DHT22;43379;48.160;14.036;2022-11-21T07:35:25;7.60;99.90
57552;DHT22;43379;48.160;14.036;2022-11-21T07:37:51;7.70;99.90
57552;DHT22;43379;48.160;14.036;2022-11-21T07:40:18;7.70;99.90
57552;DHT22;43379;48.160;14.036;2022-11-21T07:42:44;7.80;99.90
57552;DHT22;43379;48.160;14.036;2022-11-21T07:45:10;7.90;99.90
57552;DHT22;43379;48.160;14.036;2022-11-21T07:47:35;7.90;99.90
57552;DHT22;43379;48.160;14.036;2022-11-21T07:50:01;7.90;99.90
57552;DHT22;43379;48.160;14.036;2022-11-21T07:52:27;7.90;99.90
57552;DHT22;43379;48.160;14.036;2022-11-21T07:54:55;8.00;99.90
57552;DHT22;43379;48.160;14.036;2022-11-21T07:57:21;8.10;99.90
57552;DHT22;43379;48.160;14.036;2022-11-21T07:59:46;8.20;99.90
57552;DHT22;43379;48.160;14.036;2022-11-21T08:02:19;8.50;99.90
57552;DHT22;43379;48.160;14.036;2022-11-21T08:04:49;8.70;99.90
57552;DHT22;43379;48.160;14.036;2022-11-21T08:07:15;8.80;99.90
57552;DHT22;43379;48.160;14.036;2022-11-21T08:09:41;8.80;99.90
57552;DHT22;43379;48.160;14.036;2022-11-21T08:12:08;8.80;99.90
57552;DHT22;43379;48.160;14.036;2022-11-21T08:14:34;8.70;99.90
57552;DHT22;43379;48.160;14.036;2022-11-21T08:17:00;8.60;99.90
57552;DHT22;43379;48.160;14.036;2022-11-21T08:19:26;8.60;99.90
57552;DHT22;43379;48.160;14.036;2022-11-21T08:21:52;8.50;99.90
57552;DHT22;43379;48.160;14.036;2022-11-21T08:24:17;8.40;99.90
57552;DHT22;43379;48.160;14.036;2022-11-21T08:26:43;8.20;99.90
57552;DHT22;43379;48.160;14.036;2022-11-21T08:29:10;8.10;99.90
57552;DHT22;43379;48.160;14.036;2022-11-21T08:31:37;8.00;99.90
57552;DHT22;43379;48.160;14.036;2022-11-21T08:34:03;7.90;99.90
57552;DHT22;43379;48.160;14.036;2022-11-21T08:36:29;7.80;99.90
57552;DHT22;43379;48.160;14.036;2022-11-21T08:38:55;7.80;99.90
57552;DHT22;43379;48.160;14.036;2022-11-21T08:41:20;7.80;99.90
57552;DHT22;43379;48.160;14.036;2022-11-21T08:44:05;7.70;99.90
57552;DHT22;43379;48.160;14.036;2022-11-21T08:46:33;7.70;99.90
57552;DHT22;43379;48.160;14.036;2022-11-21T08:49:10;7.70;99.90
57552;DHT22;43379;48.160;14.036;2022-11-21T08:51:36;7.70;99.90
57552;DHT22;43379;48.160;14.036;2022-11-21T08:54:02;7.60;99.90
57552;DHT22;43379;48.160;14.036;2022-11-21T08:56:28;7.60;99.90
57552;DHT22;43379;48.160;14.036;2022-11-21T08:58:53;7.40;99.90
57552;DHT22;43379;48.160;14.036;2022-11-21T09:01:20;7.40;99.90
57552;DHT22;43379;48.160;14.036;2022-11-21T09:03:46;7.40;99.90
57552;DHT22;43379;48.160;14.036;2022-11-21T09:06:11;7.40;99.90
57552;DHT22;43379;48.160;14.036;2022-11-21T09:08:37;7.30;99.90
57552;DHT22;43379;48.160;14.036;2022-11-21T09:11:05;7.30;99.90
57552;DHT22;43379;48.160;14.036;2022-11-21T09:13:32;7.40;99.90
57552;DHT22;43379;48.160;14.036;2022-11-21T09:15:58;7.30;99.90
57552;DHT22;43379;48.160;14.036;2022-11-21T09:18:42;7.40;99.90
57552;DHT22;43379;48.160;14.036;2022-11-21T09:21:08;7.40;99.90
57552;DHT22;43379;48.160;14.036;2022-11-21T09:23:34;7.50;99.90
57552;DHT22;43379;48.160;14.036;2022-11-21T09:26:00;7.60;99.90
57552;DHT22;43379;48.160;14.036;2022-11-21T09:28:26;7.60;99.90
57552;DHT22;43379;48.160;14.036;2022-11-21T09:30:51;7.70;99.90
57552;DHT22;43379;48.160;14.036;2022-11-21T09:33:17;7.70;99.90
57552;DHT22;43379;48.160;14.036;2022-11-21T09:35:43;7.70;99.90
57552;DHT22;43379;48.160;14.036;2022-11-21T09:38:09;7.70;99.90
57552;DHT22;43379;48.160;14.036;2022-11-21T09:40:36;7.80;99.90
57552;DHT22;43379;48.160;14.036;2022-11-21T09:45:48;8.00;99.90
57552;DHT22;43379;48.160;14.036;2022-11-21T09:48:38;8.10;99.90
57552;DHT22;43379;48.160;14.036;2022-11-21T09:51:10;8.50;99.90
57552;DHT22;43379;48.160;14.036;2022-11-21T09:53:44;8.90;99.90
57552;DHT22;43379;48.160;14.036;2022-11-21T09:56:16;9.30;99.90
57552;DHT22;43379;48.160;14.036;2022-11-21T10:01:25;9.40;99.90
57552;DHT22;43379;48.160;14.036;2022-11-21T10:03:53;9.50;99.90
57552;DHT22;43379;48.160;14.036;2022-11-21T10:06:25;9.70;99.90
57552;DHT22;43379;48.160;14.036;2022-11-21T10:09:20;9.80;99.90
57552;DHT22;43379;48.160;14.036;2022-11-21T10:18:00;10.30;99.90
57552;DHT22;43379;48.160;14.036;2022-11-21T10:21:01;10.30;99.90
57552;DHT22;43379;48.160;14.036;2022-11-21T10:29:26;10.00;99.90
57552;DHT22;43379;48.160;14.036;2022-11-21T10:31:56;9.80;99.90
57552;DHT22;43379;48.160;14.036;2022-11-21T10:34:29;9.60;99.90
57552;DHT22;43379;48.160;14.036;2022-11-21T10:37:06;9.50;99.90
57552;DHT22;43379;48.160;14.036;2022-11-21T10:39:43;9.40;99.90
57552;DHT22;43379;48.160;14.036;2022-11-21T10:44:41;9.30;99.90
57552;DHT22;43379;48.160;14.036;2022-11-21T10:47:32;9.20;99.90
57552;DHT22;43379;48.160;14.036;2022-11-21T10:53:14;9.20;99.90
57552;DHT22;43379;48.160;14.036;2022-11-21T10:56:10;9.10;99.90
57552;DHT22;43379;48.160;14.036;2022-11-21T10:58:43;9.10;99.90
57552;DHT22;43379;48.160;14.036;2022-11-21T11:04:17;9.00;99.90
57552;DHT22;43379;48.160;14.036;2022-11-21T11:06:45;8.90;99.90
57552;DHT22;43379;48.160;14.036;2022-11-21T11:09:31;8.80;99.90
57552;DHT22;43379;48.160;14.036;2022-11-21T11:15:25;8.80;99.90
57552;DHT22;43379;48.160;14.036;2022-11-21T11:17:55;8.60;99.90
57552;DHT22;43379;48.160;14.036;2022-11-21T11:20:42;8.60;99.90
57552;DHT22;43379;48.160;14.036;2022-11-21T11:25:51;8.60;99.90
57552;DHT22;43379;48.160;14.036;2022-11-21T11:28:17;8.70;99.90
57552;DHT22;43379;48.160;14.036;2022-11-21T11:30:48;8.80;99.90
57552;DHT22;43379;48.160;14.036;2022-11-21T11:38:55;9.00;99.90
57552;DHT22;43379;48.160;14.036;2022-11-21T11:44:40;8.90;99.90
57552;DHT22;43379;48.160;14.036;2022-11-21T11:47:28;8.90;99.90
57552;DHT22;43379;48.160;14.036;2022-11-21T11:50:01;8.90;99.90
57552;DHT22;43379;48.160;14.036;2022-11-21T11:53:45;9.00;99.90
57552;DHT22;43379;48.160;14.036;2022-11-21T11:58:54;9.10;99.90
57552;DHT22;43379;48.160;14.036;2022-11-21T12:01:34;9.10;99.90
57552;DHT22;43379;48.160;14.036;2022-11-21T12:04:15;9.40;99.90
57552;DHT22;43379;48.160;14.036;2022-11-21T12:09:20;9.90;99.90
57552;DHT22;43379;48.160;14.036;2022-11-21T12:14:52;10.40;99.90
57552;DHT22;43379;48.160;14.036;2022-11-21T12:23:13;10.70;99.90
57552;DHT22;43379;48.160;14.036;2022-11-21T12:28:45;10.50;99.60
57552;DHT22;43379;48.160;14.036;2022-11-21T12:37:16;10.00;99.40
57552;DHT22;43379;48.160;14.036;2022-11-21T12:45:37;9.70;99.90
57552;DHT22;43379;48.160;14.036;2022-11-21T12:48:14;9.70;99.90
57552;DHT22;43379;48.160;14.036;2022-11-21T12:59:30;9.70;99.90
57552;DHT22;43379;48.160;14.036;2022-11-21T13:02:02;9.70;99.60
57552;DHT22;43379;48.160;14.036;2022-11-21T13:04:37;9.60;99.90
57552;DHT22;43379;48.160;14.036;2022-11-21T13:07:05;9.80;99.90
57552;DHT22;43379;48.160;14.036;2022-11-21T13:09:39;10.00;99.90
57552;DHT22;43379;48.160;14.036;2022-11-21T13:12:18;10.10;99.90
57552;DHT22;43379;48.160;14.036;2022-11-21T13:17:53;10.50;99.10
57552;DHT22;43379;48.160;14.036;2022-11-21T13:20:39;10.60;98.90
57552;DHT22;43379;48.160;14.036;2022-11-21T13:23:39;10.70;98.10
57552;DHT22;43379;48.160;14.036;2022-11-21T13:26:44;10.80;98.50
57552;DHT22;43379;48.160;14.036;2022-11-21T13:29:13;10.80;97.90
57552;DHT22;43379;48.160;14.036;2022-11-21T13:31:39;10.90;98.40
57552;DHT22;43379;48.160;14.036;2022-11-21T13:34:33;11.00;98.10
57552;DHT22;43379;48.160;14.036;2022-11-21T13:36:59;11.00;97.30
57552;DHT22;43379;48.160;14.036;2022-11-21T13:39:33;11.00;97.10
57552;DHT22;43379;48.160;14.036;2022-11-21T13:42:00;11.00;96.90
57552;DHT22;43379;48.160;14.036;2022-11-21T13:44:45;11.00;97.80
57552;DHT22;43379;48.160;14.036;2022-11-21T13:47:29;11.00;97.50
57552;DHT22;43379;48.160;14.036;2022-11-21T13:50:14;11.00;97.60
57552;DHT22;43379;48.160;14.036;2022-11-21T13:52:48;11.00;97.00
57552;DHT22;43379;48.160;14.036;2022-11-21T14:07:36;11.00;97.20
57552;DHT22;43379;48.160;14.036;2022-11-21T14:10:16;11.00;97.50
57552;DHT22;43379;48.160;14.036;2022-11-21T14:12:46;11.00;97.60
57552;DHT22;43379;48.160;14.036;2022-11-21T14:17:50;10.90;97.00
57552;DHT22;43379;48.160;14.036;2022-11-21T14:20:25;10.80;97.00
57552;DHT22;43379;48.160;14.036;2022-11-21T14:22:57;10.70;96.90
57552;DHT22;43379;48.160;14.036;2022-11-21T14:25:46;10.60;97.60
57552;DHT22;43379;48.160;14.036;2022-11-21T14:28:30;10.50;97.60
57552;DHT22;43379;48.160;14.036;2022-11-21T14:31:06;10.40;97.90
57552;DHT22;43379;48.160;14.036;2022-11-21T14:38:29;10.20;98.20
57552;DHT22;43379;48.160;14.036;2022-11-21T14:41:27;10.10;98.00
57552;DHT22;43379;48.160;14.036;2022-11-21T14:43:59;10.10;98.10
57552;DHT22;43379;48.160;14.036;2022-11-21T14:46:37;10.10;98.50
57552;DHT22;43379;48.160;14.036;2022-11-21T14:51:43;10.00;98.40
57552;DHT22;43379;48.160;14.036;2022-11-21T14:56:46;9.90;98.90
57552;DHT22;43379;48.160;14.036;2022-11-21T14:59:26;9.80;99.10
57552;DHT22;43379;48.160;14.036;2022-11-21T15:01:59;9.80;99.30
57552;DHT22;43379;48.160;14.036;2022-11-21T15:04:32;9.80;99.40
57552;DHT22;43379;48.160;14.036;2022-11-21T15:06:58;9.80;99.60
57552;DHT22;43379;48.160;14.036;2022-11-21T15:09:24;9.70;99.60
57552;DHT22;43379;48.160;14.036;2022-11-21T15:12:00;9.70;99.60
57552;DHT22;43379;48.160;14.036;2022-11-21T15:14:49;9.70;99.50
57552;DHT22;43379;48.160;14.036;2022-11-21T15:17:19;9.70;99.20
57552;DHT22;43379;48.160;14.036;2022-11-21T15:20:22;9.70;99.30
57552;DHT22;43379;48.160;14.036;2022-11-21T15:22:48;9.60;99.60
57552;DHT22;43379;48.160;14.036;2022-11-21T15:25:15;9.60;99.70
57552;DHT22;43379;48.160;14.036;2022-11-21T15:38:39;9.10;99.90
57552;DHT22;43379;48.160;14.036;2022-11-21T15:43:47;8.90;99.90
57552;DHT22;43379;48.160;14.036;2022-11-21T15:46:23;8.80;99.90
57552;DHT22;43379;48.160;14.036;2022-11-21T15:49:03;8.60;99.90
57552;DHT22;43379;48.160;14.036;2022-11-21T15:51:51;8.50;99.90
57552;DHT22;43379;48.160;14.036;2022-11-21T15:54:21;8.40;99.90
57552;DHT22;43379;48.160;14.036;2022-11-21T15:56:47;8.40;99.90
57552;DHT22;43379;48.160;14.036;2022-11-21T15:59:13;8.20;99.90
57552;DHT22;43379;48.160;14.036;2022-11-21T16:01:40;8.20;99.90
57552;DHT22;43379;48.160;14.036;2022-11-21T16:04:09;8.10;99.90
57552;DHT22;43379;48.160;14.036;2022-11-21T16:06:35;8.10;99.90
57552;DHT22;43379;48.160;14.036;2022-11-21T16:09:02;8.00;99.90
57552;DHT22;43379;48.160;14.036;2022-11-21T16:13:59;7.90;99.90
57552;DHT22;43379;48.160;14.036;2022-11-21T16:16:30;7.90;99.90
57552;DHT22;43379;48.160;14.036;2022-11-21T16:18:56;7.80;99.90
57552;DHT22;43379;48.160;14.036;2022-11-21T16:21:23;7.70;99.90
57552;DHT22;43379;48.160;14.036;2022-11-21T16:23:49;7.60;99.90
57552;DHT22;43379;48.160;14.036;2022-11-21T16:26:15;7.60;99.90
57552;DHT22;43379;48.160;14.036;2022-11-21T16:28:41;7.50;99.90
57552;DHT22;43379;48.160;14.036;2022-11-21T16:31:17;7.50;99.90
57552;DHT22;43379;48.160;14.036;2022-11-21T16:33:43;7.40;99.90
57552;DHT22;43379;48.160;14.036;2022-11-21T16:36:09;7.40;99.90
57552;DHT22;43379;48.160;14.036;2022-11-21T16:38:35;7.20;99.90
57552;DHT22;43379;48.160;14.036;2022-11-21T16:41:02;7.00;99.90
57552;DHT22;43379;48.160;14.036;2022-11-21T16:43:30;7.00;99.90
57552;DHT22;43379;48.160;14.036;2022-11-21T16:46:07;6.80;99.90
57552;DHT22;43379;48.160;14.036;2022-11-21T16:48:33;6.80;99.90
57552;DHT22;43379;48.160;14.036;2022-11-21T16:51:15;6.80;99.90
57552;DHT22;43379;48.160;14.036;2022-11-21T16:53:42;6.80;99.90
57552;DHT22;43379;48.160;14.036;2022-11-21T16:56:08;6.80;99.90
57552;DHT22;43379;48.160;14.036;2022-11-21T16:58:38;6.70;99.90
57552;DHT22;43379;48.160;14.036;2022-11-21T17:01:14;6.70;99.90
57552;DHT22;43379;48.160;14.036;2022-11-21T17:03:42;6.70;99.90
57552;DHT22;43379;48.160;14.036;2022-11-21T17:06:09;6.70;99.90
57552;DHT22;43379;48.160;14.036;2022-11-21T17:08:36;6.60;99.90
57552;DHT22;43379;48.160;14.036;2022-11-21T17:11:22;6.50;99.90
57552;DHT22;43379;48.160;14.036;2022-11-21T17:13:50;6.50;99.90
57552;DHT22;43379;48.160;14.036;2022-11-21T17:16:18;6.50;99.90
57552;DHT22;43379;48.160;14.036;2022-11-21T17:18:45;6.40;99.90
57552;DHT22;43379;48.160;14.036;2022-11-21T17:21:13;6.40;99.90
57552;DHT22;43379;48.160;14.036;2022-11-21T17:23:41;6.40;99.90
57552;DHT22;43379;48.160;14.036;2022-11-21T17:26:09;6.40;99.90
57552;DHT22;43379;48.160;14.036;2022-11-21T17:28:35;6.30;99.90
57552;DHT22;43379;48.160;14.036;2022-11-21T17:31:05;6.20;99.90
57552;DHT22;43379;48.160;14.036;2022-11-21T17:33:32;6.10;99.90
57552;DHT22;43379;48.160;14.036;2022-11-21T17:36:00;6.20;99.90
57552;DHT22;43379;48.160;14.036;2022-11-21T17:38:26;6.20;99.90
57552;DHT22;43379;48.160;14.036;2022-11-21T17:40:59;6.20;99.90
57552;DHT22;43379;48.160;14.036;2022-11-21T17:43:25;6.10;99.90
57552;DHT22;43379;48.160;14.036;2022-11-21T17:45:55;6.10;99.90
57552;DHT22;43379;48.160;14.036;2022-11-21T17:48:21;6.00;99.90
57552;DHT22;43379;48.160;14.036;2022-11-21T17:50:46;6.00;99.90
57552;DHT22;43379;48.160;14.036;2022-11-21T17:53:12;5.90;99.90
57552;DHT22;43379;48.160;14.036;2022-11-21T17:55:37;5.90;99.90
57552;DHT22;43379;48.160;14.036;2022-11-21T17:58:03;5.90;99.90
57552;DHT22;43379;48.160;14.036;2022-11-21T18:00:29;5.90;99.90